KFAF/FAF METAR and TAF weather

Enter ICAO airport designator
Station Type Date Time Source
KFAF METAR 2021/09/25 10:56 UTC NOAA

KFAF 251056Z AUTO 00000KT 10SM CLR 13/08 A3005 RMK AO2 SLP179 T01320078 $


Station Type Date Time Source
KFAF Decoded METAR 2021/09/25 10:56 UTC NOAA

Fort Eustis / Felker, VA, United States (KFAF) 37-08N 076-37W
Sep 25, 2021 - 06:56 AM EDT / 2021.09.25 1056 UTC
Wind: Calm:0
Visibility: 10 mile(s):0
Sky conditions: clear
Temperature: 55.8 F (13.2 C)
Dew Point: 46.0 F (7.8 C)
Relative Humidity: 69%
Pressure (altimeter): 30.05 in. Hg (1017 hPa)
ob: KFAF 251056Z AUTO 00000KT 10SM CLR 13/08 A3005 RMK AO2 SLP179 T01320078
cycle: 11

Station Type Date Time Source
KFAF TAF 2021/09/25 02:06 UTC NOAA

TAF KFAF 250200Z 2502/2608 VRB06KT 9999 SKC QNH2993INS TX22/2519Z TN12/2511Z LAST NO
AMDS AFT 2503 NEXT 2710

Example: see airport list